Time;durP1;ratioP1;P1;durP2;ratioP2;P2;SDS_P1;SDS_P2;PMS_P1;PMS_P2;Temp;Humidity;BMP_temperature;BMP_pressure;BME280_temperature;BME280_humidity;BME280_pressure;Samples;Min_cycle;Max_cycle;Signal;HPM_P1;HPM_P2
2022/04/18 00:01:38;;;;;;;11.18;7.95;;;7.20;1.00;;;;;;5019504;28;20269;-82
2022/04/18 00:04:10;;;;;;;11.45;8.65;;;7.20;1.00;;;;;;5017753;28;21505;-81
2022/04/18 00:06:37;;;;;;;10.73;8.98;;;7.20;1.00;;;;;;5025535;28;20238;-81
2022/04/18 00:09:08;;;;;;;10.55;8.55;;;7.20;1.00;;;;;;5020481;28;21318;-82
2022/04/18 00:11:36;;;;;;;11.25;8.20;;;7.20;1.00;;;;;;5023859;28;20405;-78
2022/04/18 00:14:03;;;;;;;9.32;6.97;;;7.10;1.00;;;;;;5019238;28;20288;-81
2022/04/18 00:16:31;;;;;;;11.65;8.35;;;7.10;1.00;;;;;;5023172;28;20261;-79
2022/04/18 00:18:58;;;;;;;10.25;8.30;;;7.00;1.00;;;;;;5024297;28;20230;-79
2022/04/18 00:21:32;;;;;;;11.02;8.75;;;7.00;1.00;;;;;;5023991;28;20237;-80
2022/04/18 00:24:00;;;;;;;9.07;8.15;;;6.90;1.00;;;;;;5023561;28;20249;-81
2022/04/18 00:26:32;;;;;;;9.73;7.60;;;6.90;1.00;;;;;;5022206;28;20223;-81
2022/04/18 00:28:58;;;;;;;10.35;8.65;;;6.80;1.00;;;;;;5017207;28;20317;-81
2022/04/18 00:31:32;;;;;;;10.77;8.77;;;6.80;1.00;;;;;;5022826;28;20244;-80
2022/04/18 00:33:58;;;;;;;9.57;8.07;;;6.80;1.00;;;;;;5016690;28;20935;-80
2022/04/18 00:36:26;;;;;;;12.38;9.23;;;6.70;1.00;;;;;;5017986;28;20222;-80
2022/04/18 00:38:53;;;;;;;10.63;8.73;;;6.70;1.00;;;;;;5009171;28;20234;-79
2022/04/18 00:41:19;;;;;;;10.43;9.27;;;6.70;1.00;;;;;;5025466;28;20839;-83
2022/04/18 00:43:55;;;;;;;10.68;8.60;;;6.60;1.00;;;;;;5034507;28;20230;-79
2022/04/18 00:46:22;;;;;;;10.65;8.68;;;6.50;1.00;;;;;;5038510;28;20215;-78
2022/04/18 00:48:51;;;;;;;9.85;8.90;;;6.50;1.00;;;;;;5034955;28;20218;-78
2022/04/18 00:51:22;;;;;;;10.75;9.15;;;6.50;1.00;;;;;;5024617;28;20238;-81
2022/04/18 00:53:56;;;;;;;11.35;8.75;;;6.40;1.00;;;;;;5023299;28;20241;-79
2022/04/18 00:56:23;;;;;;;12.02;9.43;;;6.40;1.00;;;;;;5028455;28;20268;-79
2022/04/18 00:58:53;;;;;;;10.02;9.02;;;6.30;1.00;;;;;;5026040;28;20464;-80
2022/04/18 01:01:20;;;;;;;11.85;9.88;;;6.30;1.00;;;;;;5026058;28;20239;-80
2022/04/18 01:03:51;;;;;;;10.15;8.18;;;6.20;1.00;;;;;;5025183;28;20281;-79
2022/04/18 01:06:19;;;;;;;11.93;10.25;;;6.20;1.00;;;;;;5023464;28;20242;-81
2022/04/18 01:08:52;;;;;;;12.13;10.70;;;6.20;1.00;;;;;;5028315;28;20333;-79
2022/04/18 01:11:18;;;;;;;9.75;8.75;;;6.20;1.00;;;;;;5026451;28;20234;-82
2022/04/18 01:13:51;;;;;;;10.93;8.63;;;6.10;1.00;;;;;;5024288;28;20321;-79
2022/04/18 01:16:21;;;;;;;10.63;8.60;;;6.10;1.00;;;;;;5028238;28;20244;-79
2022/04/18 01:18:49;;;;;;;10.45;8.95;;;6.10;1.00;;;;;;5015239;28;20272;-80
2022/04/18 01:21:19;;;;;;;10.60;9.18;;;6.10;1.00;;;;;;5015676;28;21310;-80
2022/04/18 01:23:46;;;;;;;11.18;9.90;;;6.10;1.00;;;;;;5014177;28;20325;-79
2022/04/18 01:29:05;;;;;;;14.95;10.60;;;6.00;1.00;;;;;;5022447;28;20239;-80
2022/04/18 01:31:34;;;;;;;13.45;11.00;;;6.00;1.00;;;;;;5024892;28;20237;-81
2022/04/18 01:34:03;;;;;;;12.60;11.27;;;6.10;1.00;;;;;;5027098;28;20238;-80
2022/04/18 01:36:34;;;;;;;13.50;11.02;;;6.10;1.00;;;;;;5024567;28;21144;-79
2022/04/18 01:39:04;;;;;;;11.38;9.68;;;6.10;1.00;;;;;;5020059;28;20238;-78
2022/04/18 01:41:31;;;;;;;14.30;11.93;;;6.10;1.00;;;;;;5026017;28;20241;-79
2022/04/18 01:44:09;;;;;;;12.68;11.05;;;6.10;1.00;;;;;;5018477;28;20226;-81
2022/04/18 01:46:36;;;;;;;13.63;11.18;;;6.10;1.00;;;;;;5026416;28;20243;-79
2022/04/18 01:49:03;;;;;;;12.82;11.40;;;6.10;1.00;;;;;;5025336;28;20258;-78
2022/04/18 01:51:32;;;;;;;14.43;10.63;;;6.00;1.00;;;;;;5026096;28;20273;-79
2022/04/18 01:54:00;;;;;;;14.55;11.60;;;6.00;1.00;;;;;;5017881;28;20329;-79
2022/04/18 01:56:33;;;;;;;12.85;11.50;;;6.00;1.00;;;;;;5042319;28;20238;-80
2022/04/18 01:59:00;;;;;;;13.35;11.23;;;6.00;1.00;;;;;;5029184;28;21355;-80
2022/04/18 02:01:31;;;;;;;14.45;12.45;;;5.90;1.00;;;;;;5030011;28;20238;-80
2022/04/18 02:04:00;;;;;;;13.25;11.73;;;5.90;1.00;;;;;;5023750;28;20238;-79
2022/04/18 02:06:34;;;;;;;13.10;11.43;;;5.90;1.00;;;;;;5029773;28;20230;-82
2022/04/18 02:09:02;;;;;;;16.08;12.38;;;5.90;1.00;;;;;;5028546;28;21190;-80
2022/04/18 02:11:32;;;;;;;14.77;12.18;;;5.90;1.00;;;;;;5030875;28;20242;-80
2022/04/18 02:14:13;;;;;;;14.93;12.35;;;5.90;1.00;;;;;;5024298;28;20892;-78
2022/04/18 02:16:42;;;;;;;14.90;12.80;;;5.90;1.00;;;;;;5028944;28;20249;-81
2022/04/18 02:19:12;;;;;;;16.10;13.02;;;5.80;1.00;;;;;;5028545;28;20261;-81
2022/04/18 02:21:39;;;;;;;14.15;12.20;;;5.80;1.00;;;;;;5035986;28;20246;-80
2022/04/18 02:24:15;;;;;;;16.48;13.45;;;5.80;1.00;;;;;;5043949;28;20265;-81
2022/04/18 02:26:42;;;;;;;14.23;12.68;;;5.70;1.00;;;;;;5044380;28;20301;-80
2022/04/18 02:29:11;;;;;;;14.93;12.43;;;5.70;1.00;;;;;;5043991;28;20801;-80
2022/04/18 02:34:22;;;;;;;15.00;12.70;;;5.70;1.00;;;;;;5023299;28;20694;-79
2022/04/18 02:36:55;;;;;;;15.95;14.20;;;5.70;1.00;;;;;;5028125;28;20357;-80
2022/04/18 02:39:23;;;;;;;16.10;13.32;;;5.60;1.00;;;;;;5022703;28;20248;-80
2022/04/18 02:41:52;;;;;;;16.92;14.10;;;5.60;1.00;;;;;;5025754;28;20234;-80
2022/04/18 02:44:18;;;;;;;16.17;13.52;;;5.50;1.00;;;;;;5021278;28;20247;-80
2022/04/18 02:46:45;;;;;;;16.48;14.63;;;5.50;1.00;;;;;;5024496;28;20242;-80
2022/04/18 02:49:12;;;;;;;14.77;13.27;;;5.50;1.00;;;;;;5023222;28;20245;-80
2022/04/18 02:51:38;;;;;;;18.58;14.30;;;5.50;1.00;;;;;;5028005;28;20316;-78
2022/04/18 02:54:05;;;;;;;17.67;15.48;;;5.40;1.00;;;;;;5021393;28;20242;-79
2022/04/18 02:56:33;;;;;;;20.13;14.80;;;5.50;1.00;;;;;;5023826;28;21349;-79
2022/04/18 02:59:02;;;;;;;16.70;14.35;;;5.50;1.00;;;;;;5019601;28;20230;-79
2022/04/18 03:01:33;;;;;;;17.23;15.07;;;5.40;1.00;;;;;;5025693;28;20238;-78
2022/04/18 03:04:05;;;;;;;17.40;15.15;;;5.40;1.00;;;;;;5023999;28;20238;-79
2022/04/18 03:06:33;;;;;;;16.25;13.45;;;5.40;1.00;;;;;;5023808;28;20841;-79
2022/04/18 03:09:03;;;;;;;16.85;14.10;;;5.30;1.00;;;;;;5020978;28;20238;-78
2022/04/18 03:11:30;;;;;;;22.27;15.30;;;5.30;1.00;;;;;;5017069;28;20276;-80
2022/04/18 03:13:58;;;;;;;16.73;14.93;;;5.30;1.00;;;;;;5024763;28;20238;-81
2022/04/18 03:16:24;;;;;;;16.05;13.13;;;5.30;1.00;;;;;;5025245;28;20250;-80
2022/04/18 03:18:52;;;;;;;17.98;14.25;;;5.30;1.00;;;;;;5026032;28;20233;-79
2022/04/18 03:21:19;;;;;;;17.08;14.45;;;5.30;1.00;;;;;;5022179;28;20317;-79
2022/04/18 03:23:45;;;;;;;16.83;14.90;;;5.30;1.00;;;;;;5026659;28;20234;-80
2022/04/18 03:26:13;;;;;;;17.48;13.48;;;5.30;1.00;;;;;;5027380;28;20241;-81
2022/04/18 03:28:39;;;;;;;17.88;13.88;;;5.30;1.00;;;;;;5032185;28;20230;-78
2022/04/18 03:31:15;;;;;;;13.50;12.00;;;5.20;1.00;;;;;;5023531;28;20242;-79
2022/04/18 03:33:42;;;;;;;15.30;13.45;;;5.20;1.00;;;;;;5021146;28;20268;-79
2022/04/18 03:41:52;;;;;;;16.98;12.70;;;5.20;1.00;;;;;;5032082;28;20241;-79
2022/04/18 03:44:19;;;;;;;15.90;13.57;;;5.20;1.00;;;;;;5035562;28;20253;-78
2022/04/18 03:46:51;;;;;;;17.33;13.18;;;5.10;1.00;;;;;;5039925;28;20706;-79
2022/04/18 03:49:18;;;;;;;16.33;12.73;;;5.10;1.00;;;;;;5039349;28;20297;-81
2022/04/18 03:51:45;;;;;;;15.48;13.43;;;5.10;1.00;;;;;;5039707;28;20238;-78
2022/04/18 03:54:12;;;;;;;16.00;12.55;;;5.10;1.00;;;;;;5035611;28;20234;-80
2022/04/18 03:56:39;;;;;;;15.35;12.95;;;5.10;1.00;;;;;;5027391;28;20242;-79
2022/04/18 03:59:06;;;;;;;15.38;11.45;;;5.10;1.00;;;;;;5020644;28;20281;-81
2022/04/18 04:01:32;;;;;;;15.88;13.15;;;5.00;1.00;;;;;;5020061;28;20285;-80
2022/04/18 04:04:00;;;;;;;17.35;13.52;;;5.10;1.00;;;;;;5013418;28;21075;-81
2022/04/18 04:06:39;;;;;;;14.40;11.95;;;5.00;1.00;;;;;;5025305;28;20227;-78
2022/04/18 04:09:13;;;;;;;16.52;12.80;;;5.00;1.00;;;;;;5024297;28;20249;-81
2022/04/18 04:11:40;;;;;;;15.93;14.25;;;5.00;1.00;;;;;;5029411;28;20288;-79
2022/04/18 04:14:09;;;;;;;14.88;11.50;;;5.00;1.00;;;;;;5027721;28;20230;-78
2022/04/18 04:16:40;;;;;;;14.63;12.43;;;4.90;1.00;;;;;;5034375;28;21107;-78
2022/04/18 04:19:16;;;;;;;17.55;13.85;;;5.00;1.00;;;;;;5028467;28;20246;-80
2022/04/18 04:21:42;;;;;;;16.20;12.55;;;4.90;1.00;;;;;;5033931;28;20256;-78
2022/04/18 04:24:11;;;;;;;16.63;14.82;;;4.90;1.00;;;;;;5032107;28;20237;-79
2022/04/18 04:26:44;;;;;;;21.00;18.63;;;4.90;1.00;;;;;;5044023;28;20218;-79
2022/04/18 04:29:12;;;;;;;16.63;11.65;;;4.90;1.00;;;;;;5038682;28;20268;-79
2022/04/18 04:31:50;;;;;;;14.82;12.60;;;4.90;1.00;;;;;;5038741;28;20234;-77
2022/04/18 04:34:22;;;;;;;17.02;13.52;;;4.90;1.00;;;;;;5032167;28;20261;-78
2022/04/18 04:36:54;;;;;;;18.50;13.55;;;4.90;1.00;;;;;;5032770;28;20245;-82
2022/04/18 04:39:22;;;;;;;15.20;12.65;;;4.90;1.00;;;;;;5031537;28;20238;-78
2022/04/18 04:41:53;;;;;;;15.05;12.68;;;4.80;1.00;;;;;;5035161;28;20242;-80
2022/04/18 04:44:22;;;;;;;14.68;11.48;;;4.80;1.00;;;;;;5044188;28;20233;-78
2022/04/18 04:46:55;;;;;;;14.95;12.52;;;4.80;1.00;;;;;;5035243;28;20665;-78
2022/04/18 04:49:23;;;;;;;15.05;12.60;;;4.80;1.00;;;;;;5028456;28;20432;-78
2022/04/18 04:51:50;;;;;;;19.40;13.52;;;4.80;1.00;;;;;;5022943;28;20238;-80
2022/04/18 04:54:16;;;;;;;15.73;13.40;;;4.80;1.00;;;;;;5024411;28;20605;-80
2022/04/18 04:56:43;;;;;;;17.65;12.75;;;4.90;1.00;;;;;;5031294;28;21042;-81
2022/04/18 04:59:15;;;;;;;16.13;13.57;;;4.90;1.00;;;;;;5025901;28;20231;-78
2022/04/18 05:01:42;;;;;;;14.27;12.65;;;4.90;1.00;;;;;;5025553;28;20288;-80
2022/04/18 05:04:15;;;;;;;18.30;15.40;;;5.00;1.00;;;;;;5024727;28;20223;-79
2022/04/18 05:06:43;;;;;;;14.35;12.82;;;5.00;1.00;;;;;;5024626;28;20230;-80
2022/04/18 05:09:12;;;;;;;16.35;14.27;;;5.10;1.00;;;;;;5030378;28;20234;-79
2022/04/18 05:11:42;;;;;;;15.32;12.95;;;5.10;1.00;;;;;;5020261;28;20269;-79
2022/04/18 05:14:12;;;;;;;17.38;13.60;;;5.20;1.00;;;;;;5029421;28;20292;-80
2022/04/18 05:16:42;;;;;;;16.88;12.93;;;5.20;1.00;;;;;;5031723;28;21234;-79
2022/04/18 05:19:13;;;;;;;15.63;12.70;;;5.30;1.00;;;;;;5029646;28;20249;-79
2022/04/18 05:21:39;;;;;;;16.15;13.43;;;5.30;1.00;;;;;;5036211;28;20782;-80
2022/04/18 05:24:14;;;;;;;16.00;13.27;;;5.40;1.00;;;;;;5032809;28;20847;-79
2022/04/18 05:26:43;;;;;;;16.55;12.02;;;5.40;1.00;;;;;;5038672;28;20225;-79
2022/04/18 05:29:23;;;;;;;18.33;13.70;;;5.50;1.00;;;;;;5030394;28;20230;-78
2022/04/18 05:31:53;;;;;;;20.67;13.77;;;5.60;1.00;;;;;;5026863;28;20285;-77
2022/04/18 05:34:26;;;;;;;16.90;13.95;;;5.70;1.00;;;;;;5026334;28;20242;-80
2022/04/18 05:36:53;;;;;;;15.95;13.43;;;5.80;1.00;;;;;;5020568;28;20227;-79
2022/04/18 05:39:24;;;;;;;18.48;14.18;;;6.00;1.00;;;;;;5023872;28;20238;-81
2022/04/18 05:41:56;;;;;;;17.38;13.30;;;6.10;1.00;;;;;;5028681;28;20218;-79
2022/04/18 05:44:25;;;;;;;15.73;13.35;;;6.20;1.00;;;;;;5027657;28;20248;-79
2022/04/18 05:46:55;;;;;;;17.30;14.43;;;6.40;1.00;;;;;;5026755;28;20214;-80
2022/04/18 05:49:23;;;;;;;17.15;14.30;;;6.50;1.00;;;;;;5029256;28;20238;-79
2022/04/18 05:51:53;;;;;;;23.15;14.48;;;6.70;1.00;;;;;;5033427;28;20237;-79
2022/04/18 05:54:23;;;;;;;17.98;13.90;;;6.80;1.00;;;;;;5034611;28;20238;-79
2022/04/18 05:56:55;;;;;;;16.63;13.32;;;6.90;1.00;;;;;;5030602;28;20248;-80
2022/04/18 05:59:23;;;;;;;15.75;13.13;;;7.10;1.00;;;;;;5033670;28;20234;-81
2022/04/18 06:01:54;;;;;;;20.23;14.02;;;7.20;1.00;;;;;;5026942;28;20305;-80
2022/04/18 06:04:23;;;;;;;16.75;13.38;;;7.30;1.00;;;;;;5030019;28;20235;-81
2022/04/18 06:06:58;;;;;;;18.52;13.80;;;7.50;1.00;;;;;;5026661;28;20264;-80
2022/04/18 06:09:26;;;;;;;19.63;13.73;;;7.60;1.00;;;;;;5030982;28;20235;-80
2022/04/18 06:11:55;;;;;;;17.60;14.55;;;7.80;1.00;;;;;;5027088;28;20248;-80
2022/04/18 06:14:23;;;;;;;16.95;13.50;;;7.80;1.00;;;;;;5029663;28;20242;-79
2022/04/18 06:16:55;;;;;;;16.58;13.10;;;7.90;1.00;;;;;;5020863;28;21144;-81
2022/04/18 06:19:23;;;;;;;17.92;15.02;;;8.00;1.00;;;;;;5025779;28;20227;-79
2022/04/18 06:21:50;;;;;;;17.20;13.25;;;8.00;1.00;;;;;;5019625;28;20237;-82
2022/04/18 06:24:18;;;;;;;19.38;13.40;;;8.10;1.00;;;;;;5022420;28;20322;-81
2022/04/18 06:26:46;;;;;;;17.17;12.73;;;8.20;1.00;;;;;;5027063;28;20344;-79
2022/04/18 06:29:15;;;;;;;19.23;14.43;;;8.20;1.00;;;;;;5025995;28;21095;-83
2022/04/18 06:31:42;;;;;;;19.63;12.88;;;8.40;1.00;;;;;;5027967;28;20230;-82
2022/04/18 06:34:13;;;;;;;15.63;12.53;;;8.50;1.00;;;;;;5031333;28;20245;-78
2022/04/18 06:36:40;;;;;;;17.33;12.03;;;8.60;1.00;;;;;;5045730;28;20433;-81
2022/04/18 06:39:06;;;;;;;14.67;12.97;;;8.80;1.00;;;;;;5024618;28;20492;-79
2022/04/18 06:41:33;;;;;;;15.87;12.20;;;8.90;1.00;;;;;;5017592;28;20450;-78
2022/04/18 06:44:04;;;;;;;18.67;13.13;;;9.00;1.00;;;;;;5020900;28;20495;-80
2022/04/18 06:46:33;;;;;;;12.60;11.40;;;9.10;1.00;;;;;;5030613;28;20410;-79
2022/04/18 06:49:00;;;;;;;13.70;10.70;;;9.20;1.00;;;;;;5036171;28;20445;-79
2022/04/18 06:51:26;;;;;;;13.87;11.13;;;9.30;1.00;;;;;;5050853;28;20438;-78
2022/04/18 06:53:54;;;;;;;13.60;11.50;;;9.30;1.00;;;;;;5045009;28;20425;-79
2022/04/18 06:59:06;;;;;;;12.80;11.30;;;9.60;1.00;;;;;;5035583;28;20534;-79
2022/04/18 07:01:33;;;;;;;12.17;10.23;;;9.70;1.00;;;;;;5025443;28;20490;-80
2022/04/18 07:04:02;;;;;;;12.17;9.87;;;9.90;1.00;;;;;;5024497;28;20496;-80
2022/04/18 07:06:42;;;;;;;13.77;10.07;;;10.00;1.00;;;;;;5029159;28;20441;-79
2022/04/18 07:09:17;;;;;;;12.57;9.17;;;9.90;1.00;;;;;;5026333;28;20427;-79
2022/04/18 07:11:45;;;;;;;11.77;9.10;;;10.00;1.00;;;;;;5020619;28;20481;-79
2022/04/18 07:14:15;;;;;;;11.13;8.70;;;10.00;1.00;;;;;;5026148;28;20457;-78
2022/04/18 07:16:45;;;;;;;9.40;8.00;;;10.00;1.00;;;;;;5019599;28;20464;-79
2022/04/18 07:19:13;;;;;;;10.20;8.87;;;10.00;1.00;;;;;;5024732;28;20445;-78
2022/04/18 07:21:41;;;;;;;9.37;7.80;;;10.20;1.00;;;;;;5019604;28;20472;-79
2022/04/18 07:24:13;;;;;;;9.90;7.50;;;10.20;1.00;;;;;;5019563;28;20475;-80
2022/04/18 07:26:40;;;;;;;10.70;8.10;;;10.40;1.00;;;;;;5024113;28;20461;-79
2022/04/18 07:29:10;;;;;;;12.30;8.87;;;10.60;1.00;;;;;;5021422;28;20512;-80
2022/04/18 07:31:41;;;;;;;9.67;7.10;;;10.60;1.00;;;;;;5020062;28;20469;-79
2022/04/18 07:34:13;;;;;;;9.20;7.77;;;10.70;1.00;;;;;;5018766;28;20603;-82
2022/04/18 07:36:39;;;;;;;9.43;7.53;;;10.90;1.00;;;;;;5025396;28;20536;-78
2022/04/18 07:39:06;;;;;;;8.93;6.77;;;11.00;1.00;;;;;;5022524;28;20501;-80
2022/04/18 07:41:32;;;;;;;11.33;7.67;;;11.20;1.00;;;;;;5022842;28;20495;-80
2022/04/18 07:44:04;;;;;;;10.27;7.93;;;11.40;1.00;;;;;;5017421;28;20410;-80
2022/04/18 07:46:32;;;;;;;11.07;7.80;;;11.50;1.00;;;;;;5024070;28;20470;-80
2022/04/18 07:49:04;;;;;;;12.97;9.37;;;11.70;1.00;;;;;;5026928;28;20427;-78
2022/04/18 07:51:39;;;;;;;9.60;8.00;;;11.80;1.00;;;;;;5028765;28;20477;-81
2022/04/18 07:54:16;;;;;;;;;;;;;;;;;;;;;
2022/04/18 07:57:04;;;;;;;;;;;;;;;;;;;;;
2022/04/18 07:59:34;;;;;;;7.83;6.63;;;12.30;1.00;;;;;;5013870;28;40338;-79
2022/04/18 08:02:01;;;;;;;8.37;6.90;;;12.40;1.00;;;;;;5017344;28;20456;-79
2022/04/18 08:04:33;;;;;;;8.17;6.73;;;12.50;1.00;;;;;;5017576;28;20559;-79
2022/04/18 08:07:00;;;;;;;8.87;7.23;;;12.60;1.00;;;;;;5005826;28;20458;-76
2022/04/18 08:09:26;;;;;;;10.07;8.03;;;12.80;1.00;;;;;;5007144;28;22803;-79
2022/04/18 08:11:53;;;;;;;9.53;7.87;;;12.80;1.00;;;;;;5016446;28;20521;-77
2022/04/18 08:14:20;;;;;;;10.93;7.40;;;12.90;1.00;;;;;;5022916;28;20492;-77
2022/04/18 08:16:50;;;;;;;9.07;6.40;;;13.00;1.00;;;;;;5013754;28;20469;-78
2022/04/18 08:19:18;;;;;;;8.20;6.00;;;13.20;1.00;;;;;;5018010;28;20477;-80
2022/04/18 08:21:46;;;;;;;8.40;5.37;;;13.30;1.00;;;;;;5019572;28;21675;-79
2022/04/18 08:24:13;;;;;;;8.10;5.80;;;13.40;1.00;;;;;;5019513;28;20677;-77
2022/04/18 08:26:45;;;;;;;6.70;5.00;;;13.50;1.00;;;;;;5014757;28;20469;-77
2022/04/18 08:29:16;;;;;;;5.77;4.93;;;13.60;1.00;;;;;;5020667;28;20441;-78
2022/04/18 08:31:42;;;;;;;7.13;4.40;;;13.60;1.00;;;;;;5013271;28;20465;-78
2022/04/18 08:34:09;;;;;;;9.73;5.00;;;13.60;1.00;;;;;;5012191;28;20452;-79
2022/04/18 08:36:35;;;;;;;7.03;5.20;;;13.70;1.00;;;;;;5015129;28;20504;-76
2022/04/18 08:39:04;;;;;;;9.87;5.53;;;13.70;1.00;;;;;;5019088;28;20417;-77
2022/04/18 08:41:38;;;;;;;7.80;5.60;;;13.80;1.00;;;;;;5015420;28;20486;-78
2022/04/18 08:44:06;;;;;;;6.80;5.20;;;13.90;1.00;;;;;;5012349;28;20442;-78
2022/04/18 08:46:33;;;;;;;6.43;4.30;;;14.00;1.00;;;;;;5017703;28;20492;-77
2022/04/18 08:54:35;;;;;;;6.97;3.90;;;14.70;1.00;;;;;;5019669;28;20482;-79
2022/04/18 08:57:02;;;;;;;5.10;3.50;;;14.90;1.00;;;;;;5030462;28;20994;-83
2022/04/18 08:59:35;;;;;;;6.67;4.00;;;15.10;1.00;;;;;;5014481;28;20447;-84
2022/04/18 09:02:02;;;;;;;4.60;3.33;;;15.30;1.00;;;;;;5017003;28;20479;-77
2022/04/18 09:04:34;;;;;;;6.47;3.80;;;15.50;1.00;;;;;;5021223;28;20433;-79
2022/04/18 09:07:15;;;;;;;4.30;3.10;;;15.60;1.00;;;;;;5022895;28;20468;-79
2022/04/18 09:09:48;;;;;;;17.07;13.03;;;15.70;1.00;;;;;;5026421;28;20470;-79
2022/04/18 09:12:19;;;;;;;8.93;4.57;;;15.90;1.00;;;;;;5000789;28;20584;-79
2022/04/18 09:14:48;;;;;;;7.00;4.53;;;15.90;1.00;;;;;;5014935;28;20507;-78
2022/04/18 09:17:33;;;;;;;9.03;4.60;;;15.90;1.00;;;;;;5023971;28;20560;-78
2022/04/18 09:20:17;;;;;;;5.30;4.37;;;16.00;1.00;;;;;;5031394;28;20477;-80
2022/04/18 09:22:45;;;;;;;7.53;3.90;;;16.10;1.00;;;;;;5022320;28;21375;-76
2022/04/18 09:25:18;;;;;;;5.70;4.43;;;16.20;1.00;;;;;;5023878;28;20545;-77
2022/04/18 09:27:55;;;;;;;5.13;4.47;;;16.30;1.00;;;;;;5021614;28;20471;-77
2022/04/18 09:30:22;;;;;;;7.50;4.77;;;16.90;1.00;;;;;;5021129;28;20542;-76
2022/04/18 09:33:01;;;;;;;5.10;4.20;;;18.10;1.00;;;;;;5015792;28;20494;-78
2022/04/18 09:35:33;;;;;;;7.83;5.00;;;19.60;1.00;;;;;;5019046;28;20626;-78
2022/04/18 09:38:01;;;;;;;5.53;4.80;;;20.80;1.00;;;;;;5020950;28;20482;-75
2022/04/18 09:40:36;;;;;;;6.17;3.90;;;22.30;1.00;;;;;;5017344;28;20473;-77
2022/04/18 09:43:02;;;;;;;6.37;4.83;;;23.30;1.00;;;;;;5024352;28;20490;-77
2022/04/18 09:45:37;;;;;;;5.17;4.67;;;24.50;1.00;;;;;;5022140;28;20453;-77
2022/04/18 09:48:03;;;;;;;5.30;4.80;;;25.60;1.00;;;;;;5024078;28;20510;-78
2022/04/18 09:53:20;;;;;;;5.50;4.47;;;26.20;1.00;;;;;;4998656;28;20955;-78
2022/04/18 09:55:50;;;;;;;5.67;4.93;;;26.10;1.00;;;;;;5024274;28;20492;-77
2022/04/18 09:58:17;;;;;;;7.30;5.40;;;25.90;1.00;;;;;;5022704;28;20512;-77
2022/04/18 10:00:44;;;;;;;5.50;4.40;;;25.60;1.00;;;;;;5027005;28;20430;-76
2022/04/18 10:03:11;;;;;;;5.13;4.00;;;25.40;1.00;;;;;;5021031;28;20462;-77
2022/04/18 10:05:43;;;;;;;4.60;3.93;;;25.60;1.00;;;;;;5024602;28;20475;-77
2022/04/18 10:08:18;;;;;;;5.33;4.57;;;26.30;1.00;;;;;;5025980;28;21264;-76
2022/04/18 10:10:45;;;;;;;4.90;4.20;;;26.60;1.00;;;;;;5020148;28;21349;-77
2022/04/18 10:13:15;;;;;;;5.60;4.23;;;26.70;1.00;;;;;;5023962;28;20440;-77
2022/04/18 10:15:42;;;;;;;4.63;3.60;;;26.50;1.00;;;;;;5018582;28;20508;-79
2022/04/18 10:18:14;;;;;;;5.80;3.40;;;26.40;1.00;;;;;;5022184;28;20425;-76
2022/04/18 10:20:57;;;;;;;5.00;3.60;;;26.70;1.00;;;;;;5021131;28;20488;-77
2022/04/18 10:23:43;;;;;;;4.70;3.40;;;27.20;1.00;;;;;;5024445;28;20523;-77
2022/04/18 10:26:45;;;;;;;4.93;3.37;;;27.20;1.00;;;;;;5026070;28;21388;-77
2022/04/18 10:29:20;;;;;;;3.97;3.57;;;27.20;1.00;;;;;;5040059;28;20428;-78
2022/04/18 10:31:50;;;;;;;5.63;4.40;;;26.90;1.00;;;;;;5036392;28;20494;-77
2022/04/18 10:34:22;;;;;;;8.03;3.90;;;26.60;1.00;;;;;;5035083;28;20482;-77
2022/04/18 10:36:55;;;;;;;4.97;3.90;;;26.80;1.00;;;;;;5025379;28;20560;-77
2022/04/18 10:39:33;;;;;;;4.53;3.83;;;27.10;1.00;;;;;;5021023;28;20472;-78
2022/04/18 10:42:22;;;;;;;4.43;3.07;;;27.90;1.00;;;;;;5020432;28;20446;-77
2022/04/18 10:45:25;;;;;;;4.20;3.30;;;28.00;1.00;;;;;;5018709;28;20485;-78
2022/04/18 10:48:09;;;;;;;4.67;2.47;;;28.20;1.00;;;;;;5025822;28;20478;-77
2022/04/18 10:50:40;;;;;;;3.33;2.30;;;28.80;1.00;;;;;;5026414;28;21178;-77
2022/04/18 10:53:20;;;;;;;4.03;2.23;;;29.10;1.00;;;;;;5018169;28;20500;-78
2022/04/18 10:56:14;;;;;;;3.90;2.23;;;28.50;1.00;;;;;;5025832;28;20440;-76
2022/04/18 10:58:45;;;;;;;3.50;1.90;;;29.10;1.00;;;;;;5025443;28;20547;-77
2022/04/18 11:01:20;;;;;;;5.00;2.00;;;29.70;1.00;;;;;;5029707;28;20453;-78
2022/04/18 11:03:59;;;;;;;3.83;2.50;;;29.70;1.00;;;;;;5025358;28;20498;-76
2022/04/18 11:06:57;;;;;;;4.87;2.60;;;29.80;1.00;;;;;;5031440;28;20435;-76
2022/04/18 11:09:27;;;;;;;2.93;1.80;;;29.40;1.00;;;;;;5029179;28;20472;-76
2022/04/18 11:12:06;;;;;;;3.83;2.20;;;29.70;1.00;;;;;;5030136;28;20416;-78
2022/04/18 11:14:54;;;;;;;6.10;2.80;;;29.50;1.00;;;;;;5034383;28;20486;-77
2022/04/18 11:17:38;;;;;;;3.70;1.90;;;29.60;1.00;;;;;;5034378;28;20449;-78
2022/04/18 11:20:27;;;;;;;2.73;2.00;;;30.40;1.00;;;;;;5042693;28;20511;-76
2022/04/18 11:23:25;;;;;;;4.27;2.23;;;31.00;1.00;;;;;;5037674;28;20937;-77
2022/04/18 11:25:55;;;;;;;2.73;1.50;;;31.50;1.00;;;;;;5025939;28;20472;-79
2022/04/18 11:28:31;;;;;;;4.03;1.60;;;31.70;1.00;;;;;;5025744;28;20408;-78
2022/04/18 11:30:59;;;;;;;3.13;1.60;;;31.50;1.00;;;;;;5022622;28;20455;-77
2022/04/18 11:33:31;;;;;;;3.40;1.93;;;31.70;1.00;;;;;;5021701;28;20480;-77
2022/04/18 11:36:04;;;;;;;2.63;1.40;;;31.10;1.00;;;;;;5018544;28;20490;-77
2022/04/18 11:38:35;;;;;;;2.70;1.70;;;30.50;1.00;;;;;;5016431;28;20765;-77
2022/04/18 11:41:14;;;;;;;5.73;2.83;;;30.10;1.00;;;;;;5023028;28;20484;-77
2022/04/18 11:43:44;;;;;;;3.70;2.23;;;29.90;1.00;;;;;;5024145;28;20456;-77
2022/04/18 11:46:11;;;;;;;4.20;2.30;;;30.40;1.00;;;;;;5017188;28;21050;-77
2022/04/18 11:48:43;;;;;;;3.67;2.60;;;30.50;1.00;;;;;;5019444;28;20687;-78
2022/04/18 11:51:37;;;;;;;3.50;2.40;;;30.60;1.00;;;;;;5023054;28;20515;-79
2022/04/18 11:54:04;;;;;;;2.73;1.93;;;30.70;1.00;;;;;;5018248;28;20535;-78
2022/04/18 11:56:34;;;;;;;2.80;2.33;;;31.10;1.00;;;;;;5022624;28;20623;-77
2022/04/18 11:59:04;;;;;;;2.93;2.10;;;31.70;1.00;;;;;;5022169;28;20457;-78
2022/04/18 12:07:02;;;;;;;4.00;2.43;;;31.60;1.00;;;;;;5022972;28;20487;-77
2022/04/18 12:09:34;;;;;;;4.53;2.87;;;31.30;1.00;;;;;;5023112;28;20528;-78
2022/04/18 12:12:02;;;;;;;2.80;1.93;;;31.50;1.00;;;;;;5023326;28;20483;-78
2022/04/18 12:14:34;;;;;;;5.73;2.93;;;32.30;1.00;;;;;;5022701;28;20470;-77
2022/04/18 12:17:01;;;;;;;3.67;2.00;;;33.00;1.00;;;;;;5016488;28;20512;-77
2022/04/18 12:19:34;;;;;;;3.90;2.83;;;32.90;1.00;;;;;;5018902;28;20488;-77
2022/04/18 12:22:04;;;;;;;2.50;1.90;;;33.00;1.00;;;;;;5024711;28;20448;-78
2022/04/18 12:24:39;;;;;;;2.90;2.13;;;33.30;1.00;;;;;;5020032;28;20449;-78
2022/04/18 12:27:06;;;;;;;3.00;2.00;;;33.20;1.00;;;;;;5019060;28;20477;-77
2022/04/18 12:29:34;;;;;;;4.50;2.20;;;33.50;1.00;;;;;;5020620;28;20439;-78
2022/04/18 12:32:00;;;;;;;3.07;1.77;;;33.50;1.00;;;;;;5023221;28;20527;-79
2022/04/18 12:34:28;;;;;;;3.63;2.20;;;33.30;1.00;;;;;;5007755;28;20474;-78
2022/04/18 12:36:59;;;;;;;4.13;3.80;;;33.60;1.00;;;;;;5022349;28;21456;-77
2022/04/18 12:39:26;;;;;;;3.80;1.57;;;33.50;1.00;;;;;;5017562;28;20497;-77
2022/04/18 12:42:01;;;;;;;3.73;2.77;;;33.80;1.00;;;;;;5022114;28;20434;-77
2022/04/18 12:44:28;;;;;;;6.10;2.03;;;34.00;1.00;;;;;;5020487;28;20491;-77
2022/04/18 12:46:55;;;;;;;3.47;1.70;;;34.60;1.00;;;;;;5023905;28;20597;-77
2022/04/18 12:49:21;;;;;;;3.40;1.90;;;35.30;1.00;;;;;;5028611;28;20449;-77
2022/04/18 12:51:54;;;;;;;2.70;1.93;;;35.40;1.00;;;;;;5023649;28;20466;-76
2022/04/18 12:54:22;;;;;;;2.50;1.50;;;35.70;1.00;;;;;;5027500;28;20468;-78
2022/04/18 12:56:54;;;;;;;3.37;1.90;;;36.40;1.00;;;;;;5033215;28;20499;-76
2022/04/18 12:59:25;;;;;;;3.20;1.60;;;36.30;1.00;;;;;;5027537;28;20449;-77
2022/04/18 13:02:13;;;;;;;4.70;1.73;;;36.50;1.00;;;;;;5028230;28;20429;-78
2022/04/18 13:04:39;;;;;;;1.97;1.23;;;36.30;1.00;;;;;;5008170;28;20477;-77
2022/04/18 13:07:13;;;;;;;4.03;1.63;;;35.70;1.00;;;;;;5026711;28;20491;-78
2022/04/18 13:09:39;;;;;;;2.60;1.60;;;35.50;1.00;;;;;;5024907;28;20483;-77
2022/04/18 13:12:08;;;;;;;3.90;1.63;;;35.40;1.00;;;;;;5024854;28;20422;-77
2022/04/18 13:14:55;;;;;;;2.13;1.50;;;35.30;1.00;;;;;;5028024;28;20444;-77
2022/04/18 13:17:22;;;;;;;2.93;1.80;;;35.30;1.00;;;;;;5026522;28;20473;-78
2022/04/18 13:19:54;;;;;;;2.90;1.70;;;35.50;1.00;;;;;;5024631;28;20477;-78
2022/04/18 13:22:22;;;;;;;3.47;1.50;;;35.40;1.00;;;;;;5022996;28;20524;-78
2022/04/18 13:24:54;;;;;;;2.27;1.30;;;35.70;1.00;;;;;;5023909;28;20476;-77
2022/04/18 13:27:25;;;;;;;2.87;1.57;;;36.50;1.00;;;;;;5023491;28;20449;-78
2022/04/18 13:29:56;;;;;;;2.70;1.90;;;36.60;1.00;;;;;;5029564;28;20663;-78
2022/04/18 13:32:24;;;;;;;2.70;1.83;;;36.60;1.00;;;;;;5026472;28;21127;-77
2022/04/18 13:34:54;;;;;;;3.70;1.93;;;35.90;1.00;;;;;;5027210;28;20425;-77
2022/04/18 13:37:22;;;;;;;2.70;1.37;;;34.80;1.00;;;;;;5026262;28;20509;-78
2022/04/18 13:39:53;;;;;;;3.93;1.70;;;33.60;1.00;;;;;;5021638;28;20454;-78
2022/04/18 13:42:20;;;;;;;2.60;1.93;;;32.70;1.00;;;;;;5019353;28;20578;-77